Time;durP1;ratioP1;P1;durP2;ratioP2;P2;SDS_P1;SDS_P2;PMS_P1;PMS_P2;Temp;Humidity;BMP_temperature;BMP_pressure;BME280_temperature;BME280_humidity;BME280_pressure;Samples;Min_cycle;Max_cycle;Signal;HPM_P1;HPM_P2
2023/10/10 00:01:17;;;;;;;0.00;0.00;;;15.80;90.80;;;;;;5015460;28;20036;-84
2023/10/10 00:03:45;;;;;;;0.00;0.00;;;15.70;90.90;;;;;;5016760;28;20121;-84
2023/10/10 00:06:13;;;;;;;0.00;0.00;;;15.60;91.00;;;;;;5022367;28;20770;-84
2023/10/10 00:08:44;;;;;;;0.75;0.75;;;15.70;90.90;;;;;;5021416;28;20408;-84
2023/10/10 00:11:19;;;;;;;0.00;0.00;;;15.80;90.70;;;;;;5022577;28;20456;-84
2023/10/10 00:13:52;;;;;;;0.10;0.10;;;15.70;90.70;;;;;;5007781;28;20030;-85
2023/10/10 00:16:35;;;;;;;0.00;0.00;;;15.70;90.80;;;;;;5005723;28;20105;-85
2023/10/10 00:21:46;;;;;;;0.00;0.00;;;15.60;91.10;;;;;;5011044;28;20025;-86
2023/10/10 00:24:14;;;;;;;0.10;0.10;;;15.40;91.50;;;;;;5023994;28;20550;-87
2023/10/10 00:26:43;;;;;;;0.10;0.10;;;15.40;91.60;;;;;;5009840;28;20050;-87
2023/10/10 00:29:09;;;;;;;0.10;0.10;;;15.40;91.70;;;;;;5012630;28;20037;-86
2023/10/10 00:31:38;;;;;;;0.00;0.00;;;15.40;91.60;;;;;;5017742;28;20026;-85
2023/10/10 00:34:07;;;;;;;0.22;0.22;;;15.30;91.80;;;;;;5016785;28;20066;-85
2023/10/10 00:36:36;;;;;;;0.20;0.20;;;15.30;92.00;;;;;;5025063;28;20025;-85
2023/10/10 00:39:23;;;;;;;0.10;0.10;;;15.20;92.10;;;;;;5023704;28;20029;-85
2023/10/10 00:44:18;;;;;;;0.00;0.00;;;15.20;92.10;;;;;;5020640;28;20045;-85
2023/10/10 00:46:51;;;;;;;0.00;0.00;;;15.10;92.20;;;;;;5018583;28;20022;-85
2023/10/10 00:49:23;;;;;;;0.52;0.52;;;15.10;92.20;;;;;;5022982;28;20055;-85
2023/10/10 00:51:53;;;;;;;0.00;0.00;;;15.10;92.30;;;;;;5020721;28;20036;-86
2023/10/10 00:56:54;;;;;;;0.00;0.00;;;14.90;92.60;;;;;;5023069;28;20079;-87
2023/10/10 00:59:43;;;;;;;0.00;0.00;;;15.00;92.50;;;;;;5022184;28;20068;-87
2023/10/10 01:02:14;;;;;;;0.00;0.00;;;14.80;92.70;;;;;;5054540;28;20464;-87
2023/10/10 01:04:57;;;;;;;0.20;0.20;;;14.90;92.50;;;;;;5024933;28;20033;-87
2023/10/10 01:07:25;;;;;;;0.00;0.00;;;14.90;92.50;;;;;;5021910;28;20032;-87
2023/10/10 01:10:07;;;;;;;0.57;0.57;;;14.90;92.50;;;;;;5026438;28;20045;-86
2023/10/10 01:12:35;;;;;;;0.10;0.10;;;14.90;92.50;;;;;;5026316;28;20148;-86
2023/10/10 01:15:09;;;;;;;0.15;0.15;;;14.90;92.40;;;;;;5025375;28;20037;-87
2023/10/10 01:17:38;;;;;;;0.20;0.20;;;14.80;92.60;;;;;;5025692;28;20029;-87
2023/10/10 01:20:18;;;;;;;0.00;0.00;;;14.70;93.00;;;;;;5026066;28;20035;-87
2023/10/10 01:22:52;;;;;;;0.00;0.00;;;14.80;92.50;;;;;;5026258;28;20032;-87
2023/10/10 01:25:42;;;;;;;0.10;0.10;;;14.80;92.50;;;;;;5026409;28;20092;-86
2023/10/10 01:28:33;;;;;;;0.35;0.35;;;14.80;92.40;;;;;;5026092;28;20104;-87
2023/10/10 01:31:04;;;;;;;0.10;0.10;;;14.80;92.30;;;;;;5025904;28;20068;-86
2023/10/10 01:35:58;;;;;;;0.60;0.60;;;14.60;92.50;;;;;;5023678;28;20116;-85
2023/10/10 01:38:30;;;;;;;0.30;0.30;;;14.70;92.40;;;;;;5016905;28;20446;-84
2023/10/10 01:40:57;;;;;;;0.00;0.00;;;14.60;92.70;;;;;;5022928;28;20129;-84
2023/10/10 01:43:24;;;;;;;0.00;0.00;;;14.60;92.60;;;;;;5019782;28;20095;-84
2023/10/10 01:46:08;;;;;;;0.00;0.00;;;14.80;91.90;;;;;;5017102;28;20025;-84
2023/10/10 01:48:43;;;;;;;0.00;0.00;;;14.90;91.60;;;;;;5014802;28;20037;-84
2023/10/10 01:51:09;;;;;;;0.00;0.00;;;14.80;91.80;;;;;;5020772;28;20172;-85
2023/10/10 01:53:40;;;;;;;0.00;0.00;;;14.60;92.00;;;;;;5018831;28;20472;-84
2023/10/10 01:56:07;;;;;;;0.10;0.10;;;14.50;92.30;;;;;;5019243;28;20104;-86
2023/10/10 01:58:40;;;;;;;0.00;0.00;;;14.50;92.40;;;;;;5023354;28;20477;-85
2023/10/10 02:01:19;;;;;;;0.00;0.00;;;14.40;92.40;;;;;;5020543;28;20489;-88
2023/10/10 02:03:46;;;;;;;0.00;0.00;;;14.40;92.20;;;;;;5024769;28;20536;-85
2023/10/10 02:06:26;;;;;;;0.00;0.00;;;14.50;92.00;;;;;;5014513;28;20030;-85
2023/10/10 02:08:52;;;;;;;0.10;0.10;;;14.50;91.80;;;;;;5026517;28;20516;-86
2023/10/10 02:11:21;;;;;;;0.00;0.00;;;14.50;91.70;;;;;;5027242;28;20052;-85
2023/10/10 02:13:48;;;;;;;0.00;0.00;;;14.50;91.70;;;;;;5021479;28;20061;-85
2023/10/10 02:16:23;;;;;;;0.00;0.00;;;14.50;91.90;;;;;;5024999;28;20108;-86
2023/10/10 02:18:53;;;;;;;0.00;0.00;;;14.30;92.00;;;;;;5023451;28;20108;-84
2023/10/10 02:21:31;;;;;;;0.00;0.00;;;14.40;92.00;;;;;;5024280;28;20037;-84
2023/10/10 02:26:44;;;;;;;0.30;0.30;;;14.30;92.10;;;;;;5013448;28;20753;-85
2023/10/10 02:29:17;;;;;;;0.10;0.10;;;14.40;91.80;;;;;;5024377;28;20033;-84
2023/10/10 02:31:48;;;;;;;0.08;0.08;;;14.60;90.90;;;;;;5018604;28;20167;-85
2023/10/10 02:34:13;;;;;;;3.10;2.88;;;14.60;90.80;;;;;;5024740;28;20029;-84
2023/10/10 02:36:41;;;;;;;0.17;0.17;;;14.40;91.30;;;;;;5024331;28;20029;-84
2023/10/10 02:39:19;;;;;;;0.10;0.10;;;14.30;91.30;;;;;;5014755;28;20029;-84
2023/10/10 02:41:49;;;;;;;0.10;0.10;;;14.20;91.30;;;;;;5017957;28;20461;-85
2023/10/10 02:46:59;;;;;;;0.00;0.00;;;14.30;91.20;;;;;;5015438;28;20524;-84
2023/10/10 02:51:58;;;;;;;0.00;0.00;;;14.30;91.00;;;;;;5021058;28;20043;-84
2023/10/10 02:56:56;;;;;;;0.00;0.00;;;14.20;91.20;;;;;;5020541;28;20140;-84
2023/10/10 02:59:31;;;;;;;0.10;0.10;;;14.10;91.30;;;;;;5018802;28;20115;-84
2023/10/10 03:01:59;;;;;;;0.00;0.00;;;14.10;91.30;;;;;;5024966;28;20044;-85
2023/10/10 03:04:52;;;;;;;0.10;0.10;;;14.10;91.40;;;;;;5023283;28;20496;-85
2023/10/10 03:07:11;;;;;;;0.15;0.15;;;13.90;91.70;;;;;;5022564;28;20037;-85
2023/10/10 03:10:22;;;;;;;0.00;0.00;;;13.90;91.90;;;;;;5020025;28;20035;-84
2023/10/10 03:12:29;;;;;;;0.00;0.00;;;13.90;91.80;;;;;;5017518;28;20030;-84
2023/10/10 03:15:00;;;;;;;0.20;0.20;;;13.80;92.00;;;;;;5014216;28;20405;-85
2023/10/10 03:17:31;;;;;;;0.00;0.00;;;13.80;92.10;;;;;;5023277;28;20025;-86
2023/10/10 03:23:52;;;;;;;0.10;0.10;;;13.70;92.50;;;;;;5026353;28;20503;-84
2023/10/10 03:25:54;;;;;;;0.10;0.10;;;13.60;92.60;;;;;;5019394;28;20099;-84
2023/10/10 03:28:29;;;;;;;0.10;0.10;;;13.60;92.70;;;;;;5018234;28;20026;-83
2023/10/10 03:31:22;;;;;;;0.10;0.10;;;13.50;92.90;;;;;;5020231;28;20045;-85
2023/10/10 03:34:09;;;;;;;0.30;0.30;;;13.50;93.00;;;;;;5017490;28;20029;-84
2023/10/10 03:36:44;;;;;;;0.10;0.10;;;13.40;93.00;;;;;;5010728;28;20030;-84
2023/10/10 03:39:42;;;;;;;0.10;0.10;;;13.40;93.10;;;;;;5023085;28;20469;-84
2023/10/10 05:23:31;;;;;;;0.10;0.10;;;12.40;94.40;;;;;;5022732;28;20051;-83
2023/10/10 05:25:59;;;;;;;0.10;0.10;;;12.40;94.30;;;;;;5023235;28;20926;-77
2023/10/10 05:28:29;;;;;;;0.10;0.10;;;12.30;94.50;;;;;;5025159;28;20203;-76
2023/10/10 05:30:55;;;;;;;0.20;0.20;;;12.20;94.90;;;;;;5021857;28;20037;-77
2023/10/10 05:33:26;;;;;;;0.10;0.10;;;12.20;95.00;;;;;;5023498;28;20041;-74
2023/10/10 05:35:57;;;;;;;0.20;0.20;;;12.30;94.90;;;;;;5018869;28;20034;-75
2023/10/10 05:38:25;;;;;;;0.10;0.10;;;12.20;94.90;;;;;;5012235;28;20107;-74
2023/10/10 05:40:51;;;;;;;0.10;0.10;;;12.20;94.90;;;;;;5023943;28;20040;-74
2023/10/10 05:43:17;;;;;;;0.10;0.10;;;12.20;94.90;;;;;;5024061;28;20029;-75
2023/10/10 05:45:44;;;;;;;0.03;0.03;;;12.20;94.70;;;;;;5024176;28;20079;-74
2023/10/10 05:48:10;;;;;;;0.10;0.10;;;12.20;94.60;;;;;;5024549;28;20116;-74
2023/10/10 05:50:37;;;;;;;1.80;1.70;;;12.30;94.50;;;;;;5019603;28;20038;-77
2023/10/10 05:53:06;;;;;;;0.10;0.10;;;12.20;94.60;;;;;;5024488;28;20108;-75
2023/10/10 05:55:33;;;;;;;0.10;0.10;;;12.10;94.90;;;;;;5012955;28;20117;-74
2023/10/10 05:58:02;;;;;;;0.10;0.10;;;12.10;94.90;;;;;;5023571;28;20404;-76
2023/10/10 06:00:28;;;;;;;0.35;0.35;;;12.20;94.70;;;;;;5022086;28;20053;-74
2023/10/10 06:02:54;;;;;;;0.10;0.10;;;12.10;94.80;;;;;;5023615;28;20033;-74
2023/10/10 06:05:20;;;;;;;0.20;0.20;;;12.10;94.60;;;;;;5024042;28;20098;-74
2023/10/10 06:07:48;;;;;;;0.10;0.10;;;12.20;94.70;;;;;;5023679;28;20038;-75
2023/10/10 06:10:17;;;;;;;0.10;0.10;;;12.20;94.80;;;;;;5023836;28;20489;-75
2023/10/10 06:12:47;;;;;;;0.10;0.10;;;12.10;94.70;;;;;;5022950;28;20201;-75
2023/10/10 06:15:16;;;;;;;0.10;0.10;;;12.20;94.50;;;;;;5023625;28;20405;-83
2023/10/10 06:17:43;;;;;;;0.10;0.10;;;12.40;94.00;;;;;;5022850;28;20021;-88
2023/10/10 06:20:21;;;;;;;;;;;12.70;93.30;;;;;;5021098;28;20121;-85
2023/10/10 06:22:53;;;;;;;0.00;0.00;;;12.80;93.10;;;;;;5022106;28;19928;-86
2023/10/10 06:25:18;;;;;;;0.00;0.00;;;12.90;92.70;;;;;;5023650;28;20053;-86
2023/10/10 06:27:57;;;;;;;0.10;0.10;;;13.20;92.20;;;;;;5023803;28;20028;-86
2023/10/10 06:30:26;;;;;;;0.10;0.10;;;13.30;91.80;;;;;;5022696;28;20033;-86
2023/10/10 06:32:58;;;;;;;0.10;0.10;;;13.50;91.50;;;;;;5023162;28;20029;-86
2023/10/10 06:37:54;;;;;;;;;;;14.10;90.20;;;;;;5013355;28;20029;-86
2023/10/10 06:40:28;;;;;;;0.00;0.00;;;14.40;88.70;;;;;;5022984;28;19917;-87
2023/10/10 06:42:56;;;;;;;0.00;0.00;;;14.60;87.40;;;;;;5013613;28;20037;-87
2023/10/10 06:45:26;;;;;;;0.08;0.08;;;14.80;86.40;;;;;;5024058;28;20037;-87
2023/10/10 06:47:52;;;;;;;0.00;0.00;;;15.10;85.40;;;;;;5031886;28;20889;-86
2023/10/10 06:50:23;;;;;;;0.00;0.00;;;15.20;84.70;;;;;;5022927;28;20025;-86
2023/10/10 06:52:52;;;;;;;0.00;0.00;;;15.60;83.40;;;;;;5024800;28;20029;-87
2023/10/10 06:55:22;;;;;;;0.00;0.00;;;15.80;82.40;;;;;;5019659;28;20030;-86
2023/10/10 06:57:58;;;;;;;0.00;0.00;;;15.90;81.80;;;;;;5024277;28;20025;-85
2023/10/10 07:00:28;;;;;;;0.00;0.00;;;16.20;81.00;;;;;;5025155;28;20033;-86
2023/10/10 07:02:55;;;;;;;0.00;0.00;;;16.30;81.00;;;;;;5024765;28;20033;-86
2023/10/10 07:05:26;;;;;;;0.00;0.00;;;16.30;79.80;;;;;;5024313;28;20032;-86
2023/10/10 07:07:57;;;;;;;0.00;0.00;;;16.40;79.40;;;;;;5015032;28;20033;-86
2023/10/10 07:10:26;;;;;;;0.00;0.00;;;16.70;79.40;;;;;;5012075;28;20559;-86
2023/10/10 07:12:57;;;;;;;0.00;0.00;;;16.80;78.20;;;;;;5022129;28;20033;-87
2023/10/10 07:15:26;;;;;;;0.10;0.10;;;17.00;77.40;;;;;;5022747;28;20447;-86
2023/10/10 07:18:04;;;;;;;0.00;0.00;;;17.30;76.40;;;;;;5012738;28;20540;-86
2023/10/10 07:23:16;;;;;;;3.78;3.42;;;17.70;75.70;;;;;;5020006;28;20049;-86
2023/10/10 07:25:44;;;;;;;0.00;0.00;;;17.90;74.50;;;;;;5022723;28;20054;-86
2023/10/10 07:28:14;;;;;;;0.10;0.10;;;18.10;74.00;;;;;;5020825;28;20103;-87
2023/10/10 07:30:47;;;;;;;0.00;0.00;;;18.10;73.60;;;;;;5008127;28;20022;-86
2023/10/10 07:33:13;;;;;;;0.00;0.00;;;18.20;73.80;;;;;;5014128;28;20025;-86
2023/10/10 07:35:53;;;;;;;0.00;0.00;;;18.10;72.60;;;;;;5022231;28;20021;-86
2023/10/10 07:38:28;;;;;;;0.00;0.00;;;18.40;72.50;;;;;;5018338;28;20026;-86
2023/10/10 07:40:54;;;;;;;0.00;0.00;;;18.90;71.70;;;;;;5021910;28;20034;-86
2023/10/10 07:43:26;;;;;;;0.15;0.15;;;18.80;71.30;;;;;;5015341;28;20591;-86
2023/10/10 07:45:54;;;;;;;0.00;0.00;;;19.10;70.50;;;;;;5014860;28;20530;-86
2023/10/10 07:51:06;;;;;;;0.00;0.00;;;19.40;69.80;;;;;;5012905;28;20037;-86
2023/10/10 07:53:41;;;;;;;0.00;0.00;;;19.70;68.60;;;;;;5019508;28;20109;-86
2023/10/10 07:56:06;;;;;;;0.00;0.00;;;19.70;68.00;;;;;;5020790;28;20018;-86
2023/10/10 07:58:45;;;;;;;0.00;0.00;;;19.70;67.70;;;;;;5019222;28;20449;-87
2023/10/10 08:01:16;;;;;;;0.00;0.00;;;20.10;67.30;;;;;;5019306;28;20046;-87
2023/10/10 08:03:46;;;;;;;0.17;0.17;;;20.20;66.10;;;;;;5011901;28;20139;-87
2023/10/10 08:06:22;;;;;;;0.00;0.00;;;20.00;66.20;;;;;;5022098;28;20033;-86
2023/10/10 08:09:10;;;;;;;0.00;0.00;;;20.50;66.50;;;;;;5012509;28;20022;-87
2023/10/10 08:11:36;;;;;;;0.00;0.00;;;20.40;65.60;;;;;;5025668;28;20026;-87
2023/10/10 08:14:08;;;;;;;0.00;0.00;;;20.60;65.10;;;;;;5026633;28;20846;-87
2023/10/10 08:16:39;;;;;;;3.40;3.10;;;20.60;65.00;;;;;;5014236;28;20044;-86
2023/10/10 08:19:07;;;;;;;0.00;0.00;;;20.70;64.40;;;;;;5019466;28;20657;-86
2023/10/10 08:21:37;;;;;;;0.00;0.00;;;21.00;65.50;;;;;;5026251;28;20033;-87
2023/10/10 08:24:05;;;;;;;0.00;0.00;;;21.10;63.60;;;;;;5027425;28;20028;-86
2023/10/10 08:26:38;;;;;;;0.00;0.00;;;21.20;63.00;;;;;;5014580;28;20046;-86
2023/10/10 08:29:08;;;;;;;0.00;0.00;;;21.40;63.00;;;;;;5016727;28;20061;-87
2023/10/10 08:31:36;;;;;;;0.00;0.00;;;21.90;63.00;;;;;;5014010;28;20022;-87
2023/10/10 08:34:02;;;;;;;0.00;0.00;;;21.70;61.50;;;;;;5012751;28;20108;-88
2023/10/10 08:36:29;;;;;;;;;;;21.60;62.70;;;;;;5018084;28;20029;-87
2023/10/10 08:38:58;;;;;;;;;;;21.70;62.50;;;;;;5018717;28;19916;-86
2023/10/10 08:41:31;;;;;;;0.00;0.00;;;21.80;61.50;;;;;;5015006;28;19913;-87
2023/10/10 08:43:58;;;;;;;0.00;0.00;;;21.90;61.20;;;;;;5015678;28;20120;-87
2023/10/10 08:46:31;;;;;;;0.00;0.00;;;22.20;60.40;;;;;;5022342;28;20030;-86
2023/10/10 08:49:03;;;;;;;0.00;0.00;;;22.90;60.30;;;;;;5018420;28;20051;-87
2023/10/10 08:51:33;;;;;;;0.00;0.00;;;22.40;60.10;;;;;;5015374;28;20255;-86
2023/10/10 08:54:09;;;;;;;0.00;0.00;;;22.30;60.80;;;;;;5021110;28;20033;-88
2023/10/10 08:56:42;;;;;;;0.00;0.00;;;22.60;59.90;;;;;;5020975;28;20030;-87
2023/10/10 08:59:10;;;;;;;0.00;0.00;;;22.70;60.80;;;;;;5020800;28;20033;-87
2023/10/10 09:01:37;;;;;;;0.00;0.00;;;23.00;59.60;;;;;;5017408;28;20034;-87
2023/10/10 09:04:05;;;;;;;0.00;0.00;;;22.40;59.50;;;;;;5022260;28;20032;-86
2023/10/10 09:06:45;;;;;;;0.00;0.00;;;22.30;59.80;;;;;;5025423;28;20036;-87
2023/10/10 09:11:56;;;;;;;0.00;0.00;;;22.70;59.20;;;;;;5007808;28;20045;-87
2023/10/10 09:14:39;;;;;;;0.00;0.00;;;22.90;58.70;;;;;;5009244;28;20034;-87
2023/10/10 09:17:28;;;;;;;0.00;0.00;;;23.70;57.20;;;;;;5013591;28;20029;-87
2023/10/10 09:19:57;;;;;;;0.00;0.00;;;23.90;57.10;;;;;;5024945;28;20037;-87
2023/10/10 09:22:42;;;;;;;0.10;0.10;;;23.70;57.90;;;;;;5008970;28;20037;-86
2023/10/10 09:25:25;;;;;;;0.00;0.00;;;24.10;56.90;;;;;;5023828;28;20053;-87
2023/10/10 09:28:04;;;;;;;0.00;0.00;;;24.40;56.20;;;;;;5026248;28;20048;-87
2023/10/10 09:30:40;;;;;;;0.00;0.00;;;24.60;55.20;;;;;;5016954;28;20053;-87
2023/10/10 09:33:16;;;;;;;0.00;0.00;;;23.80;55.30;;;;;;5011360;28;20058;-87
2023/10/10 09:35:48;;;;;;;0.00;0.00;;;23.10;56.20;;;;;;5013594;28;20029;-86
2023/10/10 09:38:19;;;;;;;0.00;0.00;;;22.90;57.80;;;;;;5012489;28;20125;-87
2023/10/10 09:40:48;;;;;;;0.00;0.00;;;22.70;57.10;;;;;;5015392;28;20025;-87
2023/10/10 09:43:34;;;;;;;0.00;0.00;;;22.60;57.30;;;;;;5019935;28;20030;-86
2023/10/10 09:46:19;;;;;;;0.00;0.00;;;22.70;58.10;;;;;;5025158;28;20068;-86
2023/10/10 09:49:17;;;;;;;0.00;0.00;;;22.70;58.20;;;;;;5018618;28;20026;-86
2023/10/10 09:54:25;;;;;;;0.00;0.00;;;22.90;58.70;;;;;;5019323;28;20076;-87
2023/10/10 09:56:53;;;;;;;0.00;0.00;;;22.90;59.90;;;;;;5024419;28;20026;-86
2023/10/10 09:59:28;;;;;;;0.00;0.00;;;22.70;58.20;;;;;;5024718;28;20033;-86
2023/10/10 10:01:59;;;;;;;0.00;0.00;;;23.00;58.10;;;;;;5024395;28;20056;-87
2023/10/10 10:04:28;;;;;;;0.00;0.00;;;23.30;58.50;;;;;;5024600;28;20029;-86
2023/10/10 10:07:12;;;;;;;0.00;0.00;;;23.20;58.10;;;;;;5023234;28;20056;-85
2023/10/10 10:10:09;;;;;;;0.00;0.00;;;23.30;59.70;;;;;;5019533;28;20040;-87
2023/10/10 10:12:59;;;;;;;0.00;0.00;;;23.40;57.80;;;;;;5018052;28;20027;-86
2023/10/10 10:15:48;;;;;;;0.00;0.00;;;23.20;57.80;;;;;;5016276;28;20033;-88
2023/10/10 10:18:29;;;;;;;0.00;0.00;;;23.50;57.50;;;;;;5015926;28;20064;-88
2023/10/10 10:23:47;;;;;;;0.00;0.00;;;23.60;57.40;;;;;;5022009;28;20067;-87
2023/10/10 10:26:31;;;;;;;0.00;0.00;;;23.50;60.10;;;;;;5020936;28;20053;-87
2023/10/10 10:28:58;;;;;;;0.00;0.00;;;23.30;58.50;;;;;;5020616;28;20053;-88
2023/10/10 10:31:28;;;;;;;;;;;23.50;61.00;;;;;;5024252;28;20036;-87
2023/10/10 10:34:08;;;;;;;0.00;0.00;;;23.60;57.00;;;;;;5022671;28;20280;-88
2023/10/10 10:36:45;;;;;;;0.00;0.00;;;23.50;56.80;;;;;;5023569;28;20554;-87
2023/10/10 10:39:20;;;;;;;0.00;0.00;;;23.60;55.90;;;;;;5024123;28;20037;-87
2023/10/10 10:41:56;;;;;;;0.00;0.00;;;23.50;56.50;;;;;;5011373;28;20040;-87
2023/10/10 10:44:29;;;;;;;1.17;0.75;;;23.80;56.70;;;;;;5024363;28;20048;-87
2023/10/10 10:46:56;;;;;;;0.00;0.00;;;23.80;56.50;;;;;;5020186;28;20022;-87
2023/10/10 10:49:22;;;;;;;0.00;0.00;;;23.60;59.10;;;;;;5023481;28;20094;-87
2023/10/10 10:52:05;;;;;;;0.00;0.00;;;23.70;58.00;;;;;;5022919;28;20107;-86
2023/10/10 10:54:37;;;;;;;0.00;0.00;;;23.70;59.10;;;;;;5018911;28;20583;-86
2023/10/10 10:57:03;;;;;;;0.00;0.00;;;23.80;58.20;;;;;;5018916;28;20071;-87
2023/10/10 10:59:35;;;;;;;0.00;0.00;;;23.90;59.10;;;;;;5018737;28;20521;-88
2023/10/10 11:02:13;;;;;;;0.00;0.00;;;23.90;59.10;;;;;;5022096;28;20455;-87
2023/10/10 11:07:07;;;;;;;0.00;0.00;;;23.80;58.00;;;;;;5019593;28;20029;-87
2023/10/10 11:09:36;;;;;;;0.00;0.00;;;23.90;58.00;;;;;;5008275;28;20040;-87
2023/10/10 11:12:04;;;;;;;0.00;0.00;;;24.00;61.10;;;;;;5008165;28;20053;-87
2023/10/10 11:14:34;;;;;;;0.00;0.00;;;23.90;58.40;;;;;;5007925;28;20498;-87
2023/10/10 11:17:00;;;;;;;0.00;0.00;;;24.00;59.10;;;;;;5021366;28;20079;-88
2023/10/10 11:22:01;;;;;;;0.00;0.00;;;24.00;62.80;;;;;;5005605;28;20033;-87
2023/10/10 11:24:31;;;;;;;0.00;0.00;;;24.10;58.80;;;;;;5017925;28;20481;-87
2023/10/10 11:29:45;;;;;;;0.00;0.00;;;23.80;62.70;;;;;;5010842;28;20052;-88
2023/10/10 11:32:29;;;;;;;0.00;0.00;;;23.80;64.20;;;;;;5013533;28;20130;-86
2023/10/10 11:37:48;;;;;;;0.00;0.00;;;23.80;60.60;;;;;;5022468;28;20107;-87
2023/10/10 11:40:19;;;;;;;0.00;0.00;;;23.70;60.20;;;;;;5022549;28;20037;-87
2023/10/10 11:42:47;;;;;;;0.00;0.00;;;23.80;59.90;;;;;;5022820;28;20029;-86
2023/10/10 11:45:19;;;;;;;0.00;0.00;;;23.80;58.60;;;;;;5007887;28;20396;-87
2023/10/10 11:47:51;;;;;;;0.00;0.00;;;23.50;60.20;;;;;;5014348;28;20029;-87
2023/10/10 11:50:22;;;;;;;0.00;0.00;;;23.70;63.40;;;;;;5011798;28;20504;-88
2023/10/10 11:52:58;;;;;;;0.00;0.00;;;23.80;63.20;;;;;;5017926;28;20580;-87
2023/10/10 11:55:28;;;;;;;0.00;0.00;;;23.80;59.80;;;;;;5017361;28;20028;-86
2023/10/10 11:57:58;;;;;;;0.00;0.00;;;23.80;58.60;;;;;;5016417;28;20021;-87
2023/10/10 12:00:43;;;;;;;0.00;0.00;;;23.70;60.00;;;;;;5015963;28;20049;-87
2023/10/10 12:03:13;;;;;;;0.00;0.00;;;23.80;60.60;;;;;;5016346;28;20051;-87
2023/10/10 12:05:47;;;;;;;1.65;0.75;;;23.70;61.40;;;;;;5020762;28;20480;-87
2023/10/10 12:08:15;;;;;;;0.00;0.00;;;23.80;59.70;;;;;;5011855;28;20744;-87
2023/10/10 12:10:52;;;;;;;0.00;0.00;;;23.70;57.00;;;;;;5005680;28;20030;-87
2023/10/10 12:16:01;;;;;;;0.00;0.00;;;23.90;58.00;;;;;;5023072;28;20060;-88
2023/10/10 12:18:30;;;;;;;0.00;0.00;;;24.00;57.50;;;;;;5021373;28;20057;-87
2023/10/10 12:21:01;;;;;;;0.05;0.05;;;24.00;55.70;;;;;;5022891;28;20044;-87
2023/10/10 12:23:27;;;;;;;0.00;0.00;;;23.80;55.90;;;;;;5010596;28;20073;-88
2023/10/10 12:25:56;;;;;;;0.00;0.00;;;23.70;55.60;;;;;;5014406;28;20058;-88
2023/10/10 12:28:21;;;;;;;0.00;0.00;;;23.70;55.00;;;;;;5023249;28;20084;-88
2023/10/10 12:30:47;;;;;;;0.00;0.00;;;23.80;55.40;;;;;;5014391;28;20080;-87
2023/10/10 12:33:15;;;;;;;0.00;0.00;;;23.60;57.20;;;;;;5020356;28;20381;-87
2023/10/10 12:35:46;;;;;;;0.10;0.10;;;23.70;58.10;;;;;;5009850;28;20101;-87
2023/10/10 12:38:20;;;;;;;0.00;0.00;;;23.70;57.80;;;;;;5017071;28;20079;-87
2023/10/10 12:40:53;;;;;;;0.00;0.00;;;23.70;57.60;;;;;;5012447;28;20029;-87
2023/10/10 12:43:20;;;;;;;0.00;0.00;;;23.80;57.60;;;;;;5017066;28;20030;-88
2023/10/10 12:45:47;;;;;;;0.00;0.00;;;23.70;54.10;;;;;;5016181;28;20038;-87
2023/10/10 12:48:13;;;;;;;9.73;5.90;;;23.80;52.60;;;;;;5016786;28;20029;-87
2023/10/10 12:50:44;;;;;;;;;;;23.90;53.80;;;;;;5015377;28;20037;-87
2023/10/10 12:53:15;;;;;;;0.00;0.00;;;23.80;52.30;;;;;;5014282;28;20398;-87
2023/10/10 12:58:27;;;;;;;0.00;0.00;;;23.50;54.20;;;;;;5021849;28;20041;-87
2023/10/10 13:00:53;;;;;;;0.00;0.00;;;23.60;53.60;;;;;;5021834;28;20041;-87
2023/10/10 13:03:22;;;;;;;0.00;0.00;;;24.00;52.60;;;;;;5019514;28;20034;-88
2023/10/10 13:05:52;;;;;;;0.00;0.00;;;23.70;51.80;;;;;;5026092;28;20034;-88
2023/10/10 13:08:20;;;;;;;0.00;0.00;;;23.70;53.40;;;;;;5024458;28;20021;-88
2023/10/10 13:10:55;;;;;;;0.00;0.00;;;24.00;54.90;;;;;;5008523;28;20790;-87
2023/10/10 13:13:26;;;;;;;0.00;0.00;;;23.90;52.00;;;;;;5011570;28;20018;-87
2023/10/10 13:16:22;;;;;;;0.00;0.00;;;23.80;52.30;;;;;;5017433;28;20037;-87
2023/10/10 13:18:48;;;;;;;0.00;0.00;;;23.90;52.80;;;;;;5008865;28;20049;-87
2023/10/10 13:21:14;;;;;;;;;;;24.00;52.20;;;;;;5020761;28;20045;-88
2023/10/10 13:23:43;;;;;;;0.00;0.00;;;23.90;51.50;;;;;;5012045;28;19985;-88
2023/10/10 13:26:09;;;;;;;0.08;0.08;;;23.50;51.80;;;;;;5015188;28;20188;-88
2023/10/10 13:28:36;;;;;;;0.00;0.00;;;23.70;53.20;;;;;;5025844;28;20021;-87
2023/10/10 13:31:02;;;;;;;0.00;0.00;;;23.80;53.60;;;;;;5025041;28;20037;-87
2023/10/10 13:33:28;;;;;;;0.00;0.00;;;23.70;54.30;;;;;;5020905;28;20044;-89
2023/10/10 13:35:54;;;;;;;0.00;0.00;;;23.70;54.60;;;;;;5020697;28;20033;-87
2023/10/10 13:38:20;;;;;;;0.00;0.00;;;23.90;55.00;;;;;;5012093;28;20268;-86
2023/10/10 13:40:48;;;;;;;0.10;0.10;;;24.00;55.20;;;;;;5012242;28;20038;-87
2023/10/10 13:43:18;;;;;;;0.00;0.00;;;23.80;55.00;;;;;;5011022;28;20109;-87
2023/10/10 13:45:51;;;;;;;0.00;0.00;;;23.70;55.30;;;;;;5015181;28;20389;-85
2023/10/10 13:48:18;;;;;;;0.00;0.00;;;23.70;54.30;;;;;;5012576;28;20026;-88
2023/10/10 13:50:45;;;;;;;0.00;0.00;;;23.80;52.60;;;;;;5016448;28;20033;-87
2023/10/10 13:53:14;;;;;;;0.00;0.00;;;23.90;52.20;;;;;;5011996;28;20104;-87
2023/10/10 13:55:42;;;;;;;0.00;0.00;;;23.90;54.30;;;;;;5024116;28;20032;-86
2023/10/10 13:58:12;;;;;;;0.00;0.00;;;23.80;54.90;;;;;;5025779;28;20448;-86
2023/10/10 14:00:55;;;;;;;0.00;0.00;;;23.70;53.30;;;;;;5025355;28;20112;-88
2023/10/10 14:03:35;;;;;;;0.00;0.00;;;23.40;55.80;;;;;;5025806;28;20028;-87
2023/10/10 14:06:04;;;;;;;0.00;0.00;;;23.50;54.30;;;;;;5025328;28;20817;-87
2023/10/10 14:08:32;;;;;;;0.00;0.00;;;23.40;55.40;;;;;;5022460;28;20552;-87
2023/10/10 14:11:00;;;;;;;0.00;0.00;;;23.30;56.30;;;;;;5015448;28;20136;-87
2023/10/10 14:13:30;;;;;;;0.00;0.00;;;23.50;55.40;;;;;;5023152;28;20018;-88
2023/10/10 14:15:56;;;;;;;0.00;0.00;;;23.50;55.90;;;;;;5014717;28;20033;-87
2023/10/10 14:18:31;;;;;;;0.00;0.00;;;23.70;57.30;;;;;;5020035;28;20144;-87
2023/10/10 14:21:01;;;;;;;0.00;0.00;;;23.90;56.10;;;;;;5016056;28;20072;-87
2023/10/10 14:23:29;;;;;;;0.00;0.00;;;23.90;56.40;;;;;;5013231;28;20365;-87
2023/10/10 14:26:13;;;;;;;0.00;0.00;;;23.60;57.70;;;;;;5014968;28;20440;-87
2023/10/10 14:28:50;;;;;;;0.00;0.00;;;23.70;57.90;;;;;;5018760;28;20413;-87
2023/10/10 14:31:24;;;;;;;0.00;0.00;;;23.60;58.50;;;;;;5013876;28;20076;-87
2023/10/10 14:33:51;;;;;;;0.00;0.00;;;23.60;58.60;;;;;;5016191;28;20489;-87
2023/10/10 14:36:17;;;;;;;0.25;0.25;;;23.80;58.00;;;;;;5016531;28;20030;-87
2023/10/10 14:38:47;;;;;;;;;;;23.50;59.00;;;;;;5018048;28;20030;-88
2023/10/10 14:41:22;;;;;;;0.52;0.52;;;23.70;58.70;;;;;;5014756;28;20724;-86
2023/10/10 14:43:50;;;;;;;0.00;0.00;;;23.60;59.30;;;;;;5012866;28;20026;-87
2023/10/10 14:46:31;;;;;;;0.00;0.00;;;23.70;58.50;;;;;;5016722;28;20355;-87
2023/10/10 14:49:00;;;;;;;0.00;0.00;;;23.40;60.00;;;;;;5020203;28;20066;-87
2023/10/10 14:51:33;;;;;;;0.00;0.00;;;23.40;57.70;;;;;;5017598;28;20029;-87
2023/10/10 14:54:06;;;;;;;0.00;0.00;;;23.50;58.50;;;;;;5022083;28;20790;-87
2023/10/10 14:56:37;;;;;;;2.85;1.35;;;23.70;60.20;;;;;;5017803;28;20034;-87
2023/10/10 14:59:06;;;;;;;0.00;0.00;;;23.40;59.40;;;;;;5013469;28;20041;-87
2023/10/10 15:01:35;;;;;;;2.90;0.52;;;23.20;60.20;;;;;;5014380;28;20670;-86
2023/10/10 15:04:03;;;;;;;0.00;0.00;;;23.20;59.30;;;;;;5020322;28;20144;-88
2023/10/10 15:06:30;;;;;;;1.17;1.08;;;23.20;58.90;;;;;;5019693;28;20404;-87
2023/10/10 15:08:58;;;;;;;0.00;0.00;;;23.50;58.60;;;;;;5021254;28;20037;-87
2023/10/10 15:11:30;;;;;;;0.00;0.00;;;23.30;57.30;;;;;;5021527;28;20033;-87
2023/10/10 15:13:59;;;;;;;0.00;0.00;;;23.50;56.70;;;;;;5013073;28;20625;-86
2023/10/10 15:16:27;;;;;;;0.00;0.00;;;23.30;57.10;;;;;;5022117;28;20025;-85
2023/10/10 15:18:53;;;;;;;0.00;0.00;;;23.20;56.80;;;;;;5013585;28;20064;-85
2023/10/10 15:21:32;;;;;;;0.00;0.00;;;23.20;57.00;;;;;;5012661;28;20053;-85
2023/10/10 15:23:58;;;;;;;0.00;0.00;;;23.20;56.60;;;;;;5016982;28;20025;-85
2023/10/10 15:26:24;;;;;;;0.00;0.00;;;23.20;56.30;;;;;;5022616;28;20475;-81
2023/10/10 15:28:52;;;;;;;0.00;0.00;;;23.30;55.80;;;;;;5018136;28;20029;-82
2023/10/10 15:31:24;;;;;;;0.00;0.00;;;23.20;56.40;;;;;;5022437;28;20025;-83
2023/10/10 15:33:53;;;;;;;0.00;0.00;;;23.20;55.70;;;;;;5023390;28;20033;-82
2023/10/10 15:36:19;;;;;;;0.00;0.00;;;23.30;55.70;;;;;;5020066;28;20033;-83
2023/10/10 15:38:45;;;;;;;0.00;0.00;;;23.10;56.30;;;;;;5021833;28;20107;-83
2023/10/10 15:41:21;;;;;;;0.00;0.00;;;22.90;57.20;;;;;;5022014;28;20179;-84
2023/10/10 15:43:48;;;;;;;0.00;0.00;;;22.80;59.10;;;;;;5023324;28;20021;-84
2023/10/10 15:46:17;;;;;;;;;;;22.70;59.20;;;;;;5023321;28;20040;-84
2023/10/10 15:48:48;;;;;;;0.00;0.00;;;22.60;60.00;;;;;;5019182;28;20286;-85